Time;durP1;ratioP1;P1;durP2;ratioP2;P2;SDS_P1;SDS_P2;PMS_P1;PMS_P2;Temp;Humidity;BMP_temperature;BMP_pressure;BME280_temperature;BME280_humidity;BME280_pressure;Samples;Min_cycle;Max_cycle;Signal;HPM_P1;HPM_P2
2023/07/02 00:02:21;;;;;;;32.92;13.57;;;14.80;99.90;;;;;;5018186;28;20654;-83
2023/07/02 00:04:47;;;;;;;37.70;12.85;;;14.80;99.90;;;;;;5007816;28;20022;-84
2023/07/02 00:07:12;;;;;;;35.58;13.15;;;14.80;99.90;;;;;;5008984;28;20044;-85
2023/07/02 00:09:38;;;;;;;31.52;12.32;;;14.70;99.90;;;;;;5036943;28;20025;-83
2023/07/02 00:12:04;;;;;;;33.92;13.20;;;14.70;99.90;;;;;;5023042;28;20567;-83
2023/07/02 00:14:30;;;;;;;31.35;12.77;;;14.60;99.90;;;;;;5023189;28;20083;-84
2023/07/02 00:16:55;;;;;;;29.40;14.10;;;14.60;99.90;;;;;;5025306;28;20714;-84
2023/07/02 00:19:21;;;;;;;32.20;12.95;;;14.50;99.90;;;;;;5025623;28;20079;-84
2023/07/02 00:21:47;;;;;;;34.33;13.13;;;14.40;99.90;;;;;;5025620;28;20401;-84
2023/07/02 00:24:13;;;;;;;31.52;12.85;;;14.30;99.90;;;;;;5023593;28;20040;-84
2023/07/02 00:26:40;;;;;;;29.95;12.43;;;14.20;99.90;;;;;;5020295;28;20026;-83
2023/07/02 00:29:07;;;;;;;32.53;12.02;;;14.10;99.90;;;;;;5026269;28;20037;-84
2023/07/02 00:31:33;;;;;;;32.60;12.88;;;14.00;99.90;;;;;;5018176;28;20026;-83
2023/07/02 00:34:00;;;;;;;36.72;12.15;;;14.00;99.90;;;;;;5017272;28;20516;-84
2023/07/02 00:36:26;;;;;;;38.33;13.00;;;13.90;99.90;;;;;;5021960;28;20018;-83
2023/07/02 00:38:52;;;;;;;28.50;11.13;;;13.80;99.90;;;;;;5015210;28;20033;-84
2023/07/02 00:41:18;;;;;;;29.45;11.70;;;13.70;99.90;;;;;;5021299;28;20026;-84
2023/07/02 00:43:43;;;;;;;29.40;11.90;;;13.70;99.90;;;;;;5019306;28;20033;-83
2023/07/02 00:46:20;;;;;;;34.45;12.00;;;13.70;99.90;;;;;;5023345;28;20038;-85
2023/07/02 00:48:53;;;;;;;32.58;11.55;;;13.70;99.90;;;;;;5021900;28;20093;-84
2023/07/02 00:51:27;;;;;;;31.20;10.88;;;13.60;99.90;;;;;;5023530;28;20061;-84
2023/07/02 00:53:55;;;;;;;33.80;12.35;;;13.70;99.90;;;;;;5019278;28;20141;-85
2023/07/02 00:56:22;;;;;;;30.05;10.85;;;13.70;99.90;;;;;;5025058;28;20104;-83
2023/07/02 00:58:50;;;;;;;37.53;11.95;;;13.70;99.90;;;;;;5019738;28;20033;-84
2023/07/02 01:01:18;;;;;;;35.97;10.63;;;13.60;99.90;;;;;;5023697;28;20025;-84
2023/07/02 01:03:56;;;;;;;30.52;10.93;;;13.60;99.90;;;;;;5021016;28;20488;-85
2023/07/02 01:06:27;;;;;;;29.27;11.45;;;13.70;99.90;;;;;;5016354;28;20099;-84
2023/07/02 01:08:55;;;;;;;32.85;11.60;;;13.60;99.90;;;;;;5013654;28;20039;-83
2023/07/02 01:11:27;;;;;;;30.15;11.18;;;13.60;99.90;;;;;;5023009;28;20034;-84
2023/07/02 01:13:56;;;;;;;30.98;10.75;;;13.60;99.90;;;;;;5020758;28;20040;-84
2023/07/02 01:16:22;;;;;;;31.08;11.27;;;13.60;99.90;;;;;;5022796;28;20116;-84
2023/07/02 01:18:50;;;;;;;25.52;10.90;;;13.70;99.90;;;;;;5022860;28;20737;-85
2023/07/02 01:21:16;;;;;;;27.67;10.80;;;13.70;99.90;;;;;;5006563;28;20022;-83
2023/07/02 01:23:43;;;;;;;29.58;11.38;;;13.70;99.90;;;;;;5014370;28;20033;-84
2023/07/02 01:26:09;;;;;;;31.75;10.77;;;13.80;99.90;;;;;;5022495;28;20343;-84
2023/07/02 01:28:36;;;;;;;29.90;10.57;;;13.80;99.90;;;;;;5021956;28;20029;-84
2023/07/02 01:31:03;;;;;;;27.88;10.10;;;13.90;99.90;;;;;;5022307;28;20871;-85
2023/07/02 01:33:29;;;;;;;30.73;10.63;;;13.90;99.90;;;;;;5021954;28;20033;-84
2023/07/02 01:35:54;;;;;;;28.85;9.95;;;13.80;99.90;;;;;;5022912;28;20194;-84
2023/07/02 01:38:22;;;;;;;28.45;10.25;;;13.80;99.90;;;;;;5021328;28;20104;-83
2023/07/02 01:40:47;;;;;;;28.23;9.88;;;13.90;99.90;;;;;;5024510;28;20033;-84
2023/07/02 01:43:13;;;;;;;36.00;10.70;;;13.70;99.90;;;;;;5023902;28;20037;-85
2023/07/02 01:45:40;;;;;;;28.73;9.77;;;13.70;99.90;;;;;;5023858;28;20033;-84
2023/07/02 01:48:06;;;;;;;30.27;9.48;;;13.60;99.90;;;;;;5023016;28;20083;-83
2023/07/02 01:50:32;;;;;;;24.95;9.32;;;13.50;99.90;;;;;;5021289;28;20037;-84
2023/07/02 01:52:57;;;;;;;30.42;9.95;;;13.50;99.90;;;;;;5023777;28;20568;-84
2023/07/02 01:55:23;;;;;;;31.80;9.63;;;13.40;99.90;;;;;;5024510;28;20029;-84
2023/07/02 01:57:48;;;;;;;22.42;9.15;;;13.40;99.90;;;;;;5020798;28;20092;-84
2023/07/02 02:00:14;;;;;;;34.05;10.15;;;13.30;99.90;;;;;;5018696;28;20033;-85
2023/07/02 02:02:40;;;;;;;28.58;9.95;;;13.20;99.90;;;;;;5022054;28;20046;-84
2023/07/02 02:05:06;;;;;;;36.58;10.35;;;13.20;99.90;;;;;;5020952;28;20053;-84
2023/07/02 02:07:32;;;;;;;33.63;9.38;;;13.20;99.90;;;;;;5012317;28;20047;-83
2023/07/02 02:09:58;;;;;;;28.83;9.13;;;13.20;99.90;;;;;;5015560;28;20108;-84
2023/07/02 02:12:23;;;;;;;35.08;9.77;;;13.10;99.90;;;;;;5017568;28;20117;-84
2023/07/02 02:14:49;;;;;;;29.98;9.15;;;13.10;99.90;;;;;;5022131;28;20033;-83
2023/07/02 02:17:14;;;;;;;26.45;9.40;;;13.00;99.90;;;;;;5023888;28;20037;-84
2023/07/02 02:19:40;;;;;;;31.13;9.88;;;13.00;99.90;;;;;;5020611;28;20036;-84
2023/07/02 02:22:05;;;;;;;31.52;9.07;;;13.00;99.90;;;;;;5021990;28;20116;-84
2023/07/02 02:24:31;;;;;;;26.08;9.65;;;13.10;99.90;;;;;;5021412;28;20041;-84
2023/07/02 02:26:56;;;;;;;28.90;9.57;;;13.00;99.90;;;;;;5022327;28;20063;-83
2023/07/02 02:29:22;;;;;;;32.70;9.80;;;13.10;99.90;;;;;;5020590;28;20037;-83
2023/07/02 02:31:48;;;;;;;29.52;8.63;;;13.20;99.90;;;;;;5019454;28;20824;-84
2023/07/02 02:34:13;;;;;;;36.38;10.45;;;13.20;99.90;;;;;;5032833;28;20037;-83
2023/07/02 02:36:39;;;;;;;27.90;9.55;;;13.20;99.90;;;;;;5022969;28;20096;-84
2023/07/02 02:39:04;;;;;;;28.10;9.00;;;13.20;99.90;;;;;;5024447;28;20037;-83
2023/07/02 02:41:30;;;;;;;35.45;9.93;;;13.30;99.90;;;;;;5018531;28;20073;-82
2023/07/02 02:43:56;;;;;;;32.33;9.73;;;13.30;99.90;;;;;;5013160;28;20083;-84
2023/07/02 02:46:22;;;;;;;24.52;9.02;;;13.30;99.90;;;;;;5021267;28;20030;-84
2023/07/02 02:48:49;;;;;;;32.05;9.68;;;13.30;99.90;;;;;;5018938;28;20098;-84
2023/07/02 02:51:14;;;;;;;36.38;9.57;;;13.30;99.90;;;;;;5022342;28;21109;-83
2023/07/02 02:53:40;;;;;;;28.70;9.20;;;13.30;99.90;;;;;;5017241;28;20045;-84
2023/07/02 02:56:05;;;;;;;27.70;8.63;;;13.30;99.90;;;;;;5019087;28;20033;-84
2023/07/02 02:58:31;;;;;;;24.77;9.00;;;13.30;99.90;;;;;;5019087;28;20100;-84
2023/07/02 03:00:56;;;;;;;25.50;8.82;;;13.30;99.90;;;;;;5031201;28;20505;-84
2023/07/02 03:03:24;;;;;;;27.42;8.55;;;13.20;99.90;;;;;;5003005;28;20092;-82
2023/07/02 03:05:50;;;;;;;31.48;9.45;;;13.20;99.90;;;;;;5010057;28;20059;-83
2023/07/02 03:08:16;;;;;;;26.65;9.05;;;13.20;99.90;;;;;;5012999;28;20053;-84
2023/07/02 03:10:42;;;;;;;30.63;9.35;;;13.20;99.90;;;;;;5016018;28;20060;-84
2023/07/02 03:13:07;;;;;;;31.63;10.18;;;13.10;99.90;;;;;;5014494;28;20037;-83
2023/07/02 03:15:33;;;;;;;30.70;9.55;;;13.10;99.90;;;;;;5021942;28;20063;-84
2023/07/02 03:17:59;;;;;;;28.35;8.55;;;13.00;99.90;;;;;;5023099;28;20056;-83
2023/07/02 03:20:24;;;;;;;25.63;8.80;;;13.00;99.90;;;;;;5021300;28;20026;-83
2023/07/02 03:22:50;;;;;;;25.92;8.10;;;12.90;99.90;;;;;;5018494;28;20394;-83
2023/07/02 03:25:15;;;;;;;32.03;9.52;;;12.90;99.90;;;;;;5035562;28;20021;-83
2023/07/02 03:27:41;;;;;;;29.48;9.43;;;12.80;99.90;;;;;;5018182;28;20026;-85
2023/07/02 03:30:07;;;;;;;26.10;8.55;;;12.80;99.90;;;;;;5019725;28;20029;-86
2023/07/02 03:32:33;;;;;;;30.70;9.50;;;12.80;99.90;;;;;;5035074;28;20083;-84
2023/07/02 03:34:58;;;;;;;27.02;9.35;;;12.80;99.90;;;;;;5026456;28;20493;-84
2023/07/02 03:37:24;;;;;;;26.13;7.78;;;12.70;99.90;;;;;;5020718;28;20029;-85
2023/07/02 03:39:50;;;;;;;27.67;9.23;;;12.70;99.90;;;;;;5011543;28;20038;-84
2023/07/02 03:42:16;;;;;;;27.25;8.85;;;12.70;99.90;;;;;;5022456;28;20859;-85
2023/07/02 03:44:41;;;;;;;29.58;8.95;;;12.60;99.90;;;;;;5025926;28;20053;-84
2023/07/02 03:47:12;;;;;;;29.30;9.05;;;12.60;99.90;;;;;;5026644;28;20551;-83
2023/07/02 03:49:37;;;;;;;32.95;10.02;;;12.50;99.90;;;;;;5018353;28;20088;-85
2023/07/02 03:52:03;;;;;;;24.63;8.77;;;12.40;99.90;;;;;;5040696;28;20132;-84
2023/07/02 03:54:29;;;;;;;34.78;9.93;;;12.40;99.90;;;;;;5012266;28;20022;-85
2023/07/02 03:56:54;;;;;;;32.67;9.75;;;12.40;99.90;;;;;;5007227;28;20389;-85
2023/07/02 03:59:20;;;;;;;31.95;9.18;;;12.40;99.90;;;;;;5026694;28;20034;-84
2023/07/02 04:01:45;;;;;;;30.67;9.70;;;12.30;99.90;;;;;;5018308;28;20113;-85
2023/07/02 04:04:11;;;;;;;26.95;9.18;;;12.30;99.90;;;;;;5019701;28;20144;-84
2023/07/02 04:06:37;;;;;;;34.97;9.23;;;12.30;99.90;;;;;;5014546;28;21743;-84
2023/07/02 04:09:04;;;;;;;29.15;9.27;;;12.30;99.90;;;;;;5016660;28;20084;-85
2023/07/02 04:11:29;;;;;;;31.75;9.13;;;12.30;99.90;;;;;;5021571;28;20079;-84
2023/07/02 04:13:55;;;;;;;28.65;9.23;;;12.30;99.90;;;;;;5012963;28;20049;-83
2023/07/02 04:16:20;;;;;;;26.52;8.50;;;12.30;99.90;;;;;;5012075;28;20037;-85
2023/07/02 04:18:46;;;;;;;29.00;8.93;;;12.30;99.90;;;;;;5017141;28;20030;-84
2023/07/02 04:21:12;;;;;;;26.20;8.93;;;12.30;99.90;;;;;;5019761;28;20033;-84
2023/07/02 04:23:37;;;;;;;28.80;9.73;;;12.30;99.90;;;;;;5017715;28;20030;-84
2023/07/02 04:26:03;;;;;;;28.85;9.25;;;12.20;99.90;;;;;;5024459;28;20037;-84
2023/07/02 04:28:28;;;;;;;29.27;9.50;;;12.30;99.90;;;;;;5019780;28;20105;-84
2023/07/02 04:30:54;;;;;;;30.02;9.57;;;12.30;99.90;;;;;;5016424;28;20484;-84
2023/07/02 04:33:20;;;;;;;23.58;8.82;;;12.30;99.90;;;;;;5018883;28;20388;-84
2023/07/02 04:35:46;;;;;;;30.02;8.75;;;12.30;99.90;;;;;;5021873;28;20064;-84
2023/07/02 04:38:12;;;;;;;27.60;9.98;;;12.30;99.90;;;;;;5018701;28;20112;-84
2023/07/02 04:40:38;;;;;;;29.25;8.40;;;12.40;99.90;;;;;;5023906;28;20029;-84
2023/07/02 04:43:05;;;;;;;26.45;8.68;;;12.40;99.90;;;;;;5021218;28;20072;-83
2023/07/02 04:45:36;;;;;;;27.00;8.32;;;12.40;99.90;;;;;;5013386;28;20075;-83
2023/07/02 04:48:05;;;;;;;22.25;8.15;;;12.50;99.90;;;;;;5025744;28;20604;-84
2023/07/02 04:50:31;;;;;;;30.23;9.02;;;12.50;99.90;;;;;;5021577;28;20072;-84
2023/07/02 04:52:57;;;;;;;26.27;8.18;;;12.50;99.90;;;;;;5020723;28;20077;-84
2023/07/02 04:55:22;;;;;;;32.30;9.75;;;12.50;99.90;;;;;;5019134;28;20370;-84
2023/07/02 04:57:48;;;;;;;22.55;8.98;;;12.60;99.90;;;;;;5004841;28;20041;-83
2023/07/02 05:00:14;;;;;;;24.75;8.90;;;12.60;99.90;;;;;;5021174;28;20036;-85
2023/07/02 05:02:40;;;;;;;27.00;9.77;;;12.70;99.90;;;;;;5004696;28;20056;-85
2023/07/02 05:05:06;;;;;;;22.60;8.68;;;12.70;99.90;;;;;;5008895;28;20033;-85
2023/07/02 05:07:32;;;;;;;29.58;9.65;;;12.80;99.90;;;;;;5017589;28;20041;-85
2023/07/02 05:09:57;;;;;;;25.48;9.07;;;12.80;99.90;;;;;;5022503;28;20045;-84
2023/07/02 05:12:23;;;;;;;26.95;9.63;;;12.90;99.90;;;;;;5025152;28;20037;-83
2023/07/02 05:14:49;;;;;;;23.80;8.70;;;12.90;99.90;;;;;;5016887;28;20108;-84
2023/07/02 05:17:14;;;;;;;29.83;9.60;;;13.00;99.90;;;;;;5021234;28;20040;-84
2023/07/02 05:19:41;;;;;;;30.92;9.45;;;13.00;99.90;;;;;;5026766;28;20104;-84
2023/07/02 05:22:06;;;;;;;28.30;9.45;;;13.10;99.90;;;;;;5019501;28;20482;-84
2023/07/02 05:24:32;;;;;;;27.83;9.15;;;13.10;99.90;;;;;;5024156;28;20048;-83
2023/07/02 05:26:58;;;;;;;34.10;9.85;;;13.10;99.90;;;;;;5037501;28;20029;-84
2023/07/02 05:29:23;;;;;;;22.77;8.68;;;13.20;99.90;;;;;;5023493;28;20040;-84
2023/07/02 05:31:49;;;;;;;29.52;10.20;;;13.30;99.90;;;;;;5023691;28;20625;-83
2023/07/02 05:34:14;;;;;;;31.38;9.25;;;13.30;99.90;;;;;;5025088;28;20041;-83
2023/07/02 05:36:40;;;;;;;24.48;9.45;;;13.40;99.90;;;;;;5026526;28;20171;-85
2023/07/02 05:39:05;;;;;;;32.78;9.05;;;13.40;99.90;;;;;;5023167;28;20041;-85
2023/07/02 05:41:31;;;;;;;27.48;9.13;;;13.50;99.90;;;;;;5021013;28;20029;-83
2023/07/02 05:43:57;;;;;;;29.52;9.07;;;13.50;99.90;;;;;;5010552;28;20045;-83
2023/07/02 05:46:23;;;;;;;30.42;9.38;;;13.60;99.90;;;;;;5018818;28;20071;-84
2023/07/02 05:48:49;;;;;;;28.85;9.20;;;13.60;99.90;;;;;;5010199;28;21747;-83
2023/07/02 05:51:23;;;;;;;24.13;9.02;;;13.70;99.90;;;;;;5018593;28;20037;-85
2023/07/02 05:53:49;;;;;;;22.02;8.52;;;13.70;99.90;;;;;;5019840;28;21824;-83
2023/07/02 05:56:15;;;;;;;26.52;8.45;;;13.80;99.90;;;;;;5020560;28;20052;-83
2023/07/02 05:58:40;;;;;;;25.95;8.10;;;13.90;99.90;;;;;;5031877;28;20025;-85
2023/07/02 06:01:06;;;;;;;29.77;8.82;;;14.00;99.90;;;;;;5013946;28;20025;-84
2023/07/02 06:03:32;;;;;;;27.98;8.65;;;14.10;99.90;;;;;;5008684;28;20058;-84
2023/07/02 06:05:58;;;;;;;40.00;17.17;;;14.20;99.90;;;;;;5019296;28;20060;-84
2023/07/02 06:08:23;;;;;;;25.10;11.60;;;14.20;99.90;;;;;;5019137;28;20069;-84
2023/07/02 06:10:50;;;;;;;25.92;8.85;;;14.30;99.90;;;;;;5008211;28;20388;-85
2023/07/02 06:13:16;;;;;;;23.25;7.90;;;14.40;99.90;;;;;;5015349;28;20682;-85
2023/07/02 06:15:41;;;;;;;23.30;9.02;;;14.50;99.90;;;;;;5023202;28;20033;-85
2023/07/02 06:18:07;;;;;;;23.05;8.15;;;14.50;99.90;;;;;;5025310;28;20515;-86
2023/07/02 06:20:33;;;;;;;24.30;8.65;;;14.60;99.90;;;;;;5026096;28;20041;-85
2023/07/02 06:22:58;;;;;;;25.85;8.52;;;14.70;99.90;;;;;;5024235;28;20039;-85
2023/07/02 06:25:24;;;;;;;304.75;149.40;;;14.70;99.90;;;;;;5019467;28;20116;-83
2023/07/02 06:27:49;;;;;;;39.50;16.63;;;14.90;99.90;;;;;;5021518;28;20076;-84
2023/07/02 06:30:15;;;;;;;24.60;8.13;;;15.00;99.90;;;;;;5009706;28;20034;-82
2023/07/02 06:32:41;;;;;;;23.77;8.15;;;15.00;99.90;;;;;;5020630;28;20049;-83
2023/07/02 06:35:07;;;;;;;24.50;7.53;;;15.10;99.90;;;;;;5016067;28;20033;-84
2023/07/02 06:37:33;;;;;;;19.10;6.78;;;15.20;99.90;;;;;;5019718;28;20501;-84
2023/07/02 06:39:59;;;;;;;45.45;30.65;;;15.30;99.90;;;;;;5021126;28;20044;-84
2023/07/02 06:42:25;;;;;;;37.58;18.10;;;15.40;99.90;;;;;;5026015;28;20037;-83
2023/07/02 06:44:51;;;;;;;23.10;8.68;;;15.40;99.90;;;;;;5022311;28;20033;-83
2023/07/02 06:47:17;;;;;;;22.88;7.43;;;15.50;99.90;;;;;;5017039;28;20045;-83
2023/07/02 06:49:42;;;;;;;17.33;6.75;;;15.60;99.90;;;;;;5017676;28;20711;-83
2023/07/02 06:52:08;;;;;;;21.65;7.07;;;15.60;99.90;;;;;;5019583;28;20067;-83
2023/07/02 06:54:34;;;;;;;17.63;7.20;;;15.70;99.90;;;;;;5020089;28;20061;-83
2023/07/02 06:56:59;;;;;;;20.38;6.93;;;15.80;99.90;;;;;;5017788;28;20025;-83
2023/07/02 06:59:25;;;;;;;15.77;6.30;;;15.90;99.90;;;;;;5025290;28;20029;-83
2023/07/02 07:01:51;;;;;;;18.20;6.25;;;15.90;99.90;;;;;;5019928;28;20029;-84
2023/07/02 07:04:16;;;;;;;19.42;6.60;;;16.10;99.90;;;;;;5017927;28;20095;-84
2023/07/02 07:06:42;;;;;;;19.88;6.50;;;16.10;99.90;;;;;;5019110;28;20028;-82
2023/07/02 07:09:09;;;;;;;20.70;6.55;;;16.30;99.90;;;;;;5022693;28;20029;-83
2023/07/02 07:11:35;;;;;;;18.85;6.82;;;16.40;99.90;;;;;;5023525;28;21876;-83
2023/07/02 07:14:00;;;;;;;20.05;6.55;;;16.60;99.90;;;;;;5022285;28;20045;-83
2023/07/02 07:16:26;;;;;;;19.45;5.78;;;16.60;99.90;;;;;;5020619;28;20560;-84
2023/07/02 07:18:53;;;;;;;15.55;5.70;;;16.70;99.90;;;;;;5021780;28;20029;-84
2023/07/02 07:21:18;;;;;;;16.95;6.20;;;16.80;99.90;;;;;;5020819;28;20022;-84
2023/07/02 07:23:44;;;;;;;17.20;6.00;;;16.90;99.90;;;;;;5021272;28;20049;-83
2023/07/02 07:26:09;;;;;;;19.13;6.88;;;17.00;99.90;;;;;;5023635;28;20021;-84
2023/07/02 07:28:35;;;;;;;18.20;5.72;;;17.20;99.90;;;;;;5021228;28;20033;-84
2023/07/02 07:31:01;;;;;;;18.25;5.95;;;17.50;99.90;;;;;;5023257;28;20113;-83
2023/07/02 07:33:27;;;;;;;20.38;6.10;;;18.00;99.90;;;;;;5037891;28;20042;-83
2023/07/02 07:35:52;;;;;;;15.13;5.18;;;19.70;99.90;;;;;;5023684;28;20041;-84
2023/07/02 07:38:18;;;;;;;17.02;5.63;;;22.60;99.90;;;;;;5020879;28;20037;-85
2023/07/02 07:40:44;;;;;;;13.43;5.20;;;25.50;92.00;;;;;;5024163;28;20061;-84
2023/07/02 07:43:09;;;;;;;13.55;5.32;;;28.20;73.20;;;;;;5023953;28;20037;-85
2023/07/02 07:45:35;;;;;;;12.43;4.88;;;30.50;61.60;;;;;;5020047;28;20034;-87
2023/07/02 07:48:01;;;;;;;13.10;5.03;;;32.30;53.50;;;;;;5017183;28;20112;-83
2023/07/02 07:50:27;;;;;;;11.68;4.90;;;33.50;48.30;;;;;;5020535;28;20033;-83
2023/07/02 07:52:53;;;;;;;11.35;5.15;;;34.40;46.80;;;;;;5028706;28;20116;-90
2023/07/02 07:55:19;;;;;;;14.73;5.10;;;34.90;42.80;;;;;;5027624;28;20061;-88
2023/07/02 07:57:44;;;;;;;10.88;4.60;;;35.00;41.00;;;;;;5028752;28;20033;-88
2023/07/02 08:00:10;;;;;;;11.18;5.07;;;35.20;41.30;;;;;;5025071;28;20060;-89
2023/07/02 08:02:36;;;;;;;12.88;5.22;;;35.50;39.80;;;;;;5028496;28;20037;-87
2023/07/02 08:05:03;;;;;;;11.70;4.97;;;36.50;40.10;;;;;;5029875;28;20475;-91
2023/07/02 08:07:28;;;;;;;9.50;4.32;;;37.20;38.50;;;;;;5044468;28;20048;-91
2023/07/02 08:09:54;;;;;;;10.65;4.68;;;37.80;36.80;;;;;;5029191;28;20630;-90
2023/07/02 08:12:19;;;;;;;11.45;4.65;;;38.30;36.40;;;;;;5028431;28;20072;-89
2023/07/02 08:14:45;;;;;;;11.20;4.70;;;38.30;34.90;;;;;;5019045;28;20034;-91
2023/07/02 08:17:11;;;;;;;9.77;4.07;;;38.00;35.00;;;;;;5025966;28;20117;-88
2023/07/02 08:19:36;;;;;;;9.88;4.72;;;37.90;35.20;;;;;;5025348;28;20026;-89
2023/07/02 08:22:02;;;;;;;10.38;4.40;;;37.70;35.40;;;;;;5028031;28;20166;-91
2023/07/02 08:24:30;;;;;;;10.90;4.40;;;38.80;34.00;;;;;;5028608;28;20026;-87
2023/07/02 08:26:56;;;;;;;8.75;4.20;;;39.60;33.40;;;;;;5025203;28;20096;-87
2023/07/02 08:29:21;;;;;;;9.00;3.80;;;39.90;31.70;;;;;;5020965;28;20568;-88
2023/07/02 08:31:47;;;;;;;8.50;4.47;;;40.10;29.90;;;;;;5024640;28;20112;-90
2023/07/02 08:34:13;;;;;;;7.65;3.92;;;40.20;32.10;;;;;;5027989;28;20492;-89
2023/07/02 08:36:38;;;;;;;9.13;3.53;;;40.10;31.00;;;;;;5021927;28;20026;-87
2023/07/02 08:39:04;;;;;;;8.93;3.47;;;40.70;30.10;;;;;;5027221;28;20034;-88
2023/07/02 08:41:31;;;;;;;9.68;3.83;;;40.20;30.10;;;;;;5028492;28;20468;-87
2023/07/02 08:43:57;;;;;;;9.10;3.83;;;38.70;30.60;;;;;;5026409;28;20037;-85
2023/07/02 08:46:23;;;;;;;8.95;3.38;;;38.60;32.00;;;;;;5023046;28;20028;-88
2023/07/02 08:48:48;;;;;;;7.35;3.35;;;38.10;31.30;;;;;;5016814;28;20673;-87
2023/07/02 08:51:14;;;;;;;8.23;3.42;;;35.90;31.50;;;;;;5024468;28;20128;-86
2023/07/02 08:53:39;;;;;;;9.52;4.03;;;33.00;35.00;;;;;;5024287;28;20548;-88
2023/07/02 08:56:05;;;;;;;8.88;4.13;;;31.30;37.20;;;;;;5023643;28;20080;-88
2023/07/02 08:58:31;;;;;;;11.50;4.18;;;32.10;37.30;;;;;;5023040;28;20033;-88
2023/07/02 09:01:13;;;;;;;9.77;3.78;;;32.00;37.60;;;;;;5023018;28;20056;-87
2023/07/02 09:03:40;;;;;;;8.98;3.33;;;33.10;36.40;;;;;;5022367;28;20084;-86
2023/07/02 09:06:07;;;;;;;8.32;3.00;;;35.40;33.80;;;;;;5040649;28;20033;-90
2023/07/02 09:08:36;;;;;;;8.77;3.22;;;34.60;32.10;;;;;;5021989;28;20033;-86
2023/07/02 09:11:09;;;;;;;7.28;3.33;;;34.20;32.90;;;;;;5024080;28;20639;-89
2023/07/02 09:13:45;;;;;;;8.40;3.03;;;34.40;33.40;;;;;;5024343;28;20064;-88
2023/07/02 09:16:31;;;;;;;11.10;3.25;;;34.40;32.70;;;;;;5044182;28;20029;-88
2023/07/02 09:19:02;;;;;;;8.10;3.55;;;34.50;31.10;;;;;;5028090;28;20025;-88
2023/07/02 09:21:38;;;;;;;9.73;3.83;;;34.20;34.40;;;;;;5043128;28;20573;-89
2023/07/02 09:24:22;;;;;;;7.70;3.28;;;35.70;31.70;;;;;;5025904;28;20586;-89
2023/07/02 09:26:51;;;;;;;7.78;2.75;;;36.70;31.20;;;;;;5025458;28;20083;-89
2023/07/02 09:29:23;;;;;;;9.52;3.53;;;38.00;30.00;;;;;;5027332;28;20108;-87
2023/07/02 09:31:49;;;;;;;8.68;3.33;;;39.10;29.50;;;;;;5024806;28;20034;-90
2023/07/02 09:34:15;;;;;;;9.23;3.10;;;39.50;28.50;;;;;;5012646;28;20091;-90
2023/07/02 09:36:42;;;;;;;7.80;3.28;;;40.30;28.30;;;;;;5027247;28;20760;-91
2023/07/02 09:39:18;;;;;;;8.70;3.20;;;41.60;28.00;;;;;;5025039;28;20033;-87
2023/07/02 09:41:45;;;;;;;10.50;3.67;;;42.00;28.90;;;;;;5029480;28;20117;-92
2023/07/02 09:44:11;;;;;;;9.20;3.25;;;41.80;27.60;;;;;;5027094;28;20073;-89
2023/07/02 09:46:52;;;;;;;6.57;2.88;;;41.10;27.40;;;;;;5020447;28;20126;-88
2023/07/02 09:49:22;;;;;;;7.53;3.20;;;41.90;27.90;;;;;;5020660;28;20029;-84
2023/07/02 09:51:48;;;;;;;9.98;3.03;;;42.60;27.20;;;;;;5023365;28;20682;-85
2023/07/02 09:54:14;;;;;;;7.32;2.97;;;43.60;26.40;;;;;;5022079;28;20033;-81
2023/07/02 09:56:40;;;;;;;7.15;3.40;;;44.30;26.80;;;;;;5019941;28;20032;-85
2023/07/02 09:59:05;;;;;;;5.38;3.05;;;43.90;26.80;;;;;;5020993;28;20029;-86
2023/07/02 10:01:31;;;;;;;9.80;3.15;;;42.10;27.40;;;;;;5019854;28;20038;-85
2023/07/02 10:03:57;;;;;;;8.02;2.85;;;39.60;27.40;;;;;;5014292;28;20052;-87
2023/07/02 10:06:22;;;;;;;7.80;3.20;;;38.00;29.30;;;;;;5017654;28;20048;-86
2023/07/02 10:08:55;;;;;;;6.90;3.00;;;37.80;28.20;;;;;;5014602;28;20030;-85
2023/07/02 10:11:32;;;;;;;7.35;3.20;;;39.00;30.30;;;;;;5036132;28;20048;-87
2023/07/02 10:13:59;;;;;;;6.78;2.97;;;39.40;28.10;;;;;;5025071;28;20029;-85
2023/07/02 10:16:27;;;;;;;7.10;3.05;;;38.40;29.00;;;;;;5012530;28;20026;-88
2023/07/02 10:18:52;;;;;;;7.25;3.25;;;38.30;28.60;;;;;;5023305;28;20029;-87
2023/07/02 10:21:18;;;;;;;9.90;2.95;;;39.70;32.10;;;;;;5016088;28;20048;-86
2023/07/02 10:23:44;;;;;;;7.38;2.75;;;39.70;28.10;;;;;;5012449;28;20112;-86
2023/07/02 10:26:19;;;;;;;10.23;2.92;;;38.20;28.70;;;;;;5013603;28;20041;-86
2023/07/02 10:29:00;;;;;;;9.18;3.47;;;36.20;29.20;;;;;;5027037;28;20040;-85
2023/07/02 10:31:26;;;;;;;8.82;3.55;;;33.10;31.20;;;;;;5037933;28;20462;-86
2023/07/02 10:33:52;;;;;;;7.15;2.65;;;31.30;34.40;;;;;;5016578;28;20109;-86
2023/07/02 10:36:23;;;;;;;8.77;3.25;;;31.50;39.90;;;;;;5025682;28;20033;-85
2023/07/02 10:38:49;;;;;;;10.98;3.10;;;31.60;37.20;;;;;;5031239;28;20036;-84
2023/07/02 10:41:29;;;;;;;8.45;3.08;;;31.10;36.80;;;;;;5026489;28;20025;-85
2023/07/02 10:44:05;;;;;;;6.15;2.65;;;30.30;37.90;;;;;;5024581;28;20030;-87
2023/07/02 10:46:31;;;;;;;8.10;3.53;;;29.50;39.10;;;;;;5025607;28;20113;-86
2023/07/02 10:48:57;;;;;;;8.82;3.10;;;28.60;39.00;;;;;;5019747;28;20148;-86
2023/07/02 10:51:28;;;;;;;6.82;2.97;;;28.00;40.10;;;;;;5027553;28;20037;-86
2023/07/02 10:54:02;;;;;;;7.30;3.05;;;28.10;42.00;;;;;;5018108;28;20029;-85
2023/07/02 10:56:28;;;;;;;8.23;2.97;;;28.60;40.20;;;;;;5026077;28;20032;-88
2023/07/02 10:58:54;;;;;;;6.47;2.45;;;30.60;39.50;;;;;;5040885;28;20500;-86
2023/07/02 11:01:31;;;;;;;10.20;3.10;;;30.30;36.30;;;;;;5025507;28;20025;-81
2023/07/02 11:03:57;;;;;;;8.73;3.17;;;30.10;37.20;;;;;;5024131;28;20061;-88
2023/07/02 11:06:23;;;;;;;8.80;3.30;;;29.40;38.20;;;;;;5029213;28;20062;-87
2023/07/02 11:08:48;;;;;;;8.05;2.92;;;29.20;40.10;;;;;;5022490;28;20022;-87
2023/07/02 11:11:14;;;;;;;9.38;3.05;;;28.70;39.00;;;;;;5023962;28;20029;-81
2023/07/02 11:13:47;;;;;;;8.65;3.10;;;28.20;41.90;;;;;;5020045;28;20182;-87
2023/07/02 11:16:26;;;;;;;9.15;3.00;;;27.80;41.40;;;;;;5014566;28;20631;-86
2023/07/02 11:19:08;;;;;;;7.50;3.00;;;27.60;42.60;;;;;;5021091;28;20037;-85
2023/07/02 11:21:35;;;;;;;9.32;3.25;;;29.00;43.40;;;;;;5023381;28;20551;-85
2023/07/02 11:24:04;;;;;;;7.38;2.58;;;31.60;38.50;;;;;;5024252;28;20586;-86
2023/07/02 11:26:39;;;;;;;7.25;2.70;;;34.80;36.20;;;;;;5026590;28;20033;-87
2023/07/02 11:29:10;;;;;;;8.43;3.10;;;35.40;33.30;;;;;;5028174;28;20567;-88
2023/07/02 11:31:36;;;;;;;7.53;2.67;;;34.80;33.70;;;;;;5026002;28;20045;-86
2023/07/02 11:34:14;;;;;;;8.45;2.65;;;34.90;33.50;;;;;;5025838;28;20050;-85
2023/07/02 11:36:40;;;;;;;10.20;2.83;;;34.30;34.00;;;;;;5029042;28;20069;-85
2023/07/02 11:39:06;;;;;;;9.77;2.92;;;32.70;35.60;;;;;;5027298;28;20120;-87
2023/07/02 11:41:38;;;;;;;7.13;2.55;;;31.20;37.00;;;;;;5029367;28;20037;-85
2023/07/02 11:44:04;;;;;;;7.72;2.95;;;30.30;39.70;;;;;;5044050;28;20733;-88
2023/07/02 11:46:30;;;;;;;8.00;2.78;;;29.40;40.20;;;;;;5028958;28;20064;-86
2023/07/02 11:48:56;;;;;;;8.68;2.80;;;28.90;40.00;;;;;;5028926;28;20036;-84
2023/07/02 11:51:22;;;;;;;7.25;2.60;;;28.10;39.20;;;;;;5020586;28;20040;-86
2023/07/02 11:53:47;;;;;;;7.45;2.50;;;27.50;41.40;;;;;;5023247;28;20048;-85
2023/07/02 11:56:13;;;;;;;6.63;2.28;;;27.00;41.70;;;;;;5028548;28;20499;-86
2023/07/02 11:58:39;;;;;;;7.72;2.15;;;26.90;43.60;;;;;;5028744;28;20136;-89
2023/07/02 12:01:05;;;;;;;6.30;2.30;;;26.70;44.40;;;;;;5027047;28;20095;-87
2023/07/02 12:03:31;;;;;;;6.72;2.45;;;26.60;41.90;;;;;;5023273;28;20046;-86
2023/07/02 12:05:57;;;;;;;11.32;2.88;;;26.50;42.60;;;;;;5026614;28;20026;-80
2023/07/02 12:08:22;;;;;;;7.20;2.17;;;27.20;42.90;;;;;;5022150;28;20029;-86
2023/07/02 12:10:48;;;;;;;6.90;2.30;;;27.40;42.10;;;;;;5022250;28;20107;-87
2023/07/02 12:13:14;;;;;;;5.15;2.10;;;27.30;43.80;;;;;;4324930;28;10000209;-87
2023/07/02 12:15:40;;;;;;;7.43;2.80;;;27.20;42.90;;;;;;5020785;28;20033;-87
2023/07/02 12:18:05;;;;;;;7.47;2.25;;;26.60;43.30;;;;;;5059601;22;20053;-89
2023/07/02 12:20:31;;;;;;;9.93;2.47;;;26.30;45.20;;;;;;5062336;28;20028;-89
2023/07/02 12:22:57;;;;;;;9.85;2.60;;;26.80;45.10;;;;;;5068858;28;20029;-88
2023/07/02 12:25:23;;;;;;;7.35;2.30;;;26.60;43.50;;;;;;5060443;28;20028;-88
2023/07/02 12:27:48;;;;;;;5.78;2.40;;;26.70;42.10;;;;;;5071360;28;20715;-88
2023/07/02 12:30:17;;;;;;;6.60;1.95;;;27.00;43.20;;;;;;5069606;28;20028;-88
2023/07/02 12:32:43;;;;;;;5.45;2.10;;;26.80;43.20;;;;;;5068781;28;20115;-86
2023/07/02 12:35:08;;;;;;;5.93;2.00;;;26.80;41.60;;;;;;5067562;28;20059;-90
2023/07/02 12:37:34;;;;;;;8.20;2.00;;;26.80;42.70;;;;;;5066728;28;20065;-88